Duane, New York
Current Conditions -  °F | °C
As of 11:51 PM on Saturday 22 Nov 2014 (Local Time) from KSLK Reporting Station
Haze Haze  
Wind Chill: 28°   Ceiling: 400
Heat Index: 37°   Visibility: 4mi
Dew Point: 35°   Wind: 14mph
Humidity: 93%   Direction: 220°SW
Pressure: 29.9"   Gusts: NA
Location:  44.7347°N, 74.2672°W
Report Text: KSLK 230451Z AUTO 22012KT 4SM BR OVC004 03/02 A2990 RMK AO2 SNB0352E03 SLP142 P0000 T00280017 400281122
Loading
Personal Weather Stations






























Interactive Weather Map New forecast layout! Learn more

10-Day Weather Forecast

Advertisements
Track Severe Weather on mobile